Time;durP1;ratioP1;P1;durP2;ratioP2;P2;SDS_P1;SDS_P2;PMS_P1;PMS_P2;Temp;Humidity;BMP_temperature;BMP_pressure;BME280_temperature;BME280_humidity;BME280_pressure;Samples;Min_cycle;Max_cycle;Signal;HPM_P1;HPM_P2
2023/10/16 00:01:09;;;;;;;4.55;2.00;;;;;;;9.40;61.60;99460.25;4463533;32;33725;-96
2023/10/16 00:03:41;;;;;;;7.28;1.90;;;;;;;9.44;61.39;99456.91;4465538;32;33462;-93
2023/10/16 00:06:14;;;;;;;5.47;2.17;;;;;;;8.84;63.48;99472.75;4461534;32;34597;-96
2023/10/16 00:09:29;;;;;;;6.28;1.98;;;;;;;8.86;63.07;99476.22;4466879;32;34963;-94
2023/10/16 00:11:30;;;;;;;7.40;2.62;;;;;;;9.52;60.73;99476.06;4439369;32;33278;-86
2023/10/16 00:14:00;;;;;;;6.87;2.72;;;;;;;8.84;63.34;99491.72;4458106;32;34245;-93
2023/10/16 00:16:30;;;;;;;7.22;2.35;;;;;;;9.22;61.85;99491.75;4458739;32;34836;-85
2023/10/16 00:18:59;;;;;;;4.75;2.00;;;;;;;9.19;62.15;99487.38;4472341;32;34887;-96
2023/10/16 00:21:30;;;;;;;5.00;2.17;;;;;;;9.26;61.98;99489.28;4459618;32;34064;-96
2023/10/16 00:23:57;;;;;;;4.62;1.95;;;;;;;9.34;61.28;99492.03;4463653;32;33428;-95
2023/10/16 00:26:25;;;;;;;7.75;2.30;;;;;;;9.50;60.59;99491.53;4437540;32;33120;-90
2023/10/16 00:29:35;;;;;;;7.95;2.37;;;;;;;9.16;61.53;99489.87;4456662;32;33911;-94
2023/10/16 00:31:51;;;;;;;5.25;2.05;;;;;;;9.09;62.21;99495.78;4457144;32;33994;-91
2023/10/16 00:34:20;;;;;;;6.57;2.17;;;;;;;9.09;61.83;99497.47;4448367;32;33499;-90
2023/10/16 00:36:54;;;;;;;5.55;2.50;;;;;;;9.61;60.80;99488.31;4450638;32;33545;-88
2023/10/16 00:39:28;;;;;;;5.60;2.00;;;;;;;9.34;61.40;99498.91;4468962;32;34620;-95
2023/10/16 00:42:00;;;;;;;6.25;2.08;;;;;;;9.63;60.37;99487.50;4460720;32;34004;-92
2023/10/16 00:44:35;;;;;;;4.50;1.95;;;;;;;9.91;59.82;99491.53;4446981;32;33318;-96
2023/10/16 00:47:09;;;;;;;6.90;2.42;;;;;;;9.99;59.55;99484.78;4455664;32;34641;-86
2023/10/16 00:49:38;;;;;;;5.53;2.00;;;;;;;9.71;59.80;99477.31;4446110;32;33602;-96
2023/10/16 00:52:06;;;;;;;5.62;2.17;;;;;;;9.88;59.56;99485.41;4469018;32;33447;-90
2023/10/16 00:54:39;;;;;;;7.05;2.55;;;;;;;9.72;59.87;99490.28;4447586;32;33449;-89
2023/10/16 00:57:10;;;;;;;6.18;2.35;;;;;;;10.01;58.70;99481.38;4455453;32;33887;-86
2023/10/16 00:59:39;;;;;;;6.25;1.95;;;;;;;9.27;60.39;99492.72;4475227;32;34647;-94
2023/10/16 01:02:15;;;;;;;6.40;2.08;;;;;;;9.52;60.28;99494.16;4442070;32;35164;-95
2023/10/16 01:04:43;;;;;;;5.68;2.40;;;;;;;9.60;60.03;99483.97;4449552;32;34453;-90
2023/10/16 01:07:14;;;;;;;4.05;1.92;;;;;;;9.43;60.29;99488.75;4450241;32;33645;-87
2023/10/16 01:09:46;;;;;;;6.35;2.45;;;;;;;9.62;59.71;99490.94;4466850;32;33862;-96
2023/10/16 01:12:24;;;;;;;6.18;2.58;;;;;;;8.65;62.38;99492.94;4455784;32;35176;-94
2023/10/16 01:14:52;;;;;;;5.37;2.22;;;;;;;9.44;59.67;99495.72;4466260;32;33054;-86
2023/10/16 01:17:29;;;;;;;7.07;2.70;;;;;;;9.55;59.53;99504.59;4459044;32;34018;-95
2023/10/16 01:19:57;;;;;;;4.82;2.05;;;;;;;9.43;59.86;99507.78;4463426;32;33884;-94
2023/10/16 01:22:29;;;;;;;5.95;2.47;;;;;;;8.93;60.37;99498.81;4460956;32;33880;-93
2023/10/16 01:24:59;;;;;;;5.47;2.22;;;;;;;8.99;60.79;99506.72;4464217;32;34636;-92
2023/10/16 01:27:29;;;;;;;6.25;2.15;;;;;;;9.05;60.35;99500.81;4469593;32;34823;-95
2023/10/16 01:29:59;;;;;;;4.95;2.00;;;;;;;9.09;60.20;99506.13;4462246;32;33851;-95
2023/10/16 01:32:31;;;;;;;4.75;1.67;;;;;;;9.07;60.20;99500.03;4455771;32;33717;-92
2023/10/16 01:35:00;;;;;;;5.32;1.73;;;;;;;8.04;62.31;99507.66;4455732;32;33018;-92
2023/10/16 01:37:29;;;;;;;5.32;2.45;;;;;;;8.46;61.59;99507.09;4441443;32;34749;-90
2023/10/16 01:40:14;;;;;;;4.03;1.45;;;;;;;8.60;60.65;99514.31;4448738;32;33791;-91
2023/10/16 01:42:43;;;;;;;4.80;1.70;;;;;;;8.50;60.78;99518.41;4469467;32;34575;-91
2023/10/16 01:45:14;;;;;;;6.37;2.12;;;;;;;8.08;62.59;99523.22;4460796;32;34036;-91
2023/10/16 01:47:43;;;;;;;3.87;1.83;;;;;;;7.93;62.81;99519.38;4465223;32;34651;-92
2023/10/16 01:50:21;;;;;;;5.97;1.50;;;;;;;7.87;63.12;99520.91;4461931;32;33799;-93
2023/10/16 01:52:50;;;;;;;5.87;2.20;;;;;;;7.85;62.75;99510.53;4457111;32;34670;-94
2023/10/16 01:55:19;;;;;;;3.75;1.70;;;;;;;7.99;63.03;99518.66;4467899;32;32941;-96
2023/10/16 01:57:47;;;;;;;5.62;1.75;;;;;;;7.92;62.83;99516.75;4463812;32;33769;-90
2023/10/16 02:00:17;;;;;;;3.85;1.50;;;;;;;8.11;61.89;99519.03;4467839;32;34087;-94
2023/10/16 02:02:45;;;;;;;4.65;1.60;;;;;;;8.36;60.59;99517.12;4455323;32;33294;-92
2023/10/16 02:05:14;;;;;;;6.35;1.92;;;;;;;7.97;61.79;99520.34;4467505;32;33325;-93
2023/10/16 02:07:43;;;;;;;5.12;1.62;;;;;;;8.13;61.74;99532.84;4468322;32;33417;-93
2023/10/16 02:10:14;;;;;;;4.15;1.90;;;;;;;8.50;59.91;99528.72;4456853;32;34164;-92
2023/10/16 02:12:42;;;;;;;3.85;1.77;;;;;;;7.51;63.21;99542.19;4466406;32;33787;-92
2023/10/16 02:15:10;;;;;;;7.57;2.00;;;;;;;7.79;62.65;99544.78;4459409;32;33459;-85
2023/10/16 02:17:39;;;;;;;4.47;1.67;;;;;;;7.83;62.15;99547.44;4453292;32;33375;-93
2023/10/16 02:20:14;;;;;;;5.60;1.80;;;;;;;8.21;60.87;99543.41;4462916;32;33608;-94
2023/10/16 02:22:41;;;;;;;3.75;1.70;;;;;;;8.10;60.96;99552.53;4440927;32;34355;-91
2023/10/16 02:25:11;;;;;;;4.40;1.42;;;;;;;7.99;61.90;99563.47;4460811;32;32649;-94
2023/10/16 02:27:41;;;;;;;5.70;2.08;;;;;;;8.32;60.65;99570.41;4453460;32;34319;-96
2023/10/16 02:30:28;;;;;;;5.35;2.08;;;;;;;8.16;61.53;99574.25;4464698;32;33135;-90
2023/10/16 02:33:10;;;;;;;3.58;1.80;;;;;;;8.32;60.58;99569.53;4456047;32;34724;-94
2023/10/16 02:35:42;;;;;;;4.90;2.00;;;;;;;8.49;60.78;99568.34;4452399;32;34627;-93
2023/10/16 02:38:14;;;;;;;5.37;1.60;;;;;;;8.87;59.43;99568.47;4448956;32;34395;-86
2023/10/16 02:40:44;;;;;;;4.82;1.92;;;;;;;8.83;59.83;99567.53;4454110;32;33700;-91
2023/10/16 02:43:18;;;;;;;7.45;1.67;;;;;;;8.50;60.31;99564.91;4431874;32;33095;-96
2023/10/16 02:45:55;;;;;;;4.65;1.90;;;;;;;8.44;60.83;99559.56;4453444;32;34158;-90
2023/10/16 02:48:23;;;;;;;5.70;1.90;;;;;;;7.83;62.34;99557.78;4465826;32;33709;-87
2023/10/16 02:50:54;;;;;;;5.45;1.85;;;;;;;7.95;62.34;99546.09;4458151;32;34154;-96
2023/10/16 02:53:21;;;;;;;5.55;2.20;;;;;;;7.87;62.46;99557.03;4462687;32;34809;-93
2023/10/16 02:55:52;;;;;;;4.15;1.83;;;;;;;7.70;63.20;99552.25;4468841;32;33313;-96
2023/10/16 02:58:23;;;;;;;3.60;1.73;;;;;;;8.17;61.46;99549.31;4455452;32;33246;-94
2023/10/16 03:00:53;;;;;;;4.15;1.70;;;;;;;8.44;60.43;99551.81;4450714;32;34113;-95
2023/10/16 03:03:24;;;;;;;6.43;2.00;;;;;;;7.91;62.40;99556.28;4452780;32;34933;-94
2023/10/16 03:05:53;;;;;;;6.40;2.20;;;;;;;8.29;61.09;99555.69;4452743;32;33350;-86
2023/10/16 03:08:22;;;;;;;4.62;1.80;;;;;;;8.10;61.96;99563.75;4454088;32;33352;-94
2023/10/16 03:10:51;;;;;;;3.95;1.67;;;;;;;8.06;62.21;99572.22;4446949;32;32872;-87
2023/10/16 03:13:19;;;;;;;7.68;1.98;;;;;;;8.32;61.95;99572.13;4467137;32;34109;-87
2023/10/16 03:15:47;;;;;;;5.18;1.83;;;;;;;8.63;60.44;99587.66;4467204;32;33000;-95
2023/10/16 03:18:19;;;;;;;4.57;2.00;;;;;;;8.70;60.21;99586.12;4468958;32;33888;-94
2023/10/16 03:20:47;;;;;;;4.40;1.87;;;;;;;8.75;60.31;99588.00;4416357;32;33118;-95
2023/10/16 03:23:18;;;;;;;4.10;1.80;;;;;;;8.89;59.94;99590.06;4443355;32;34022;-88
2023/10/16 03:25:51;;;;;;;7.00;2.37;;;;;;;8.69;60.24;99597.31;4453624;32;34508;-87
2023/10/16 03:28:19;;;;;;;4.87;1.95;;;;;;;8.76;60.05;99587.16;4468266;32;33679;-87
2023/10/16 03:30:49;;;;;;;4.95;1.90;;;;;;;8.68;60.05;99580.91;4457591;32;34910;-86
2023/10/16 03:33:17;;;;;;;6.32;2.37;;;;;;;8.53;60.47;99577.91;4469348;32;34064;-88
2023/10/16 03:35:47;;;;;;;5.05;2.35;;;;;;;8.58;60.14;99586.66;4444628;32;33306;-85
2023/10/16 03:38:24;;;;;;;6.43;3.53;;;;;;;8.84;59.56;99602.00;4469430;32;33846;-89
2023/10/16 03:40:53;;;;;;;4.57;2.12;;;;;;;8.96;59.51;99607.50;4457702;32;34205;-93
2023/10/16 03:43:22;;;;;;;9.35;5.40;;;;;;;8.94;59.08;99612.63;4470177;32;34021;-95
2023/10/16 03:45:49;;;;;;;7.40;2.53;;;;;;;8.86;59.14;99629.63;4470162;32;33121;-91
2023/10/16 03:48:19;;;;;;;7.87;2.60;;;;;;;8.97;58.62;99614.41;4464707;32;34671;-94
2023/10/16 03:50:47;;;;;;;6.43;2.90;;;;;;;8.92;58.43;99618.59;4455477;32;33956;-92
2023/10/16 03:53:14;;;;;;;6.25;3.42;;;;;;;8.91;58.39;99614.28;4454509;32;33517;-93
2023/10/16 03:55:47;;;;;;;7.00;2.85;;;;;;;8.80;58.58;99613.09;4454120;32;32969;-96
2023/10/16 03:58:16;;;;;;;4.40;2.05;;;;;;;8.58;59.23;99617.69;4442530;32;33771;-96
2023/10/16 04:00:53;;;;;;;5.47;2.70;;;;;;;8.16;61.22;99607.84;4447073;32;34047;-85
2023/10/16 04:03:23;;;;;;;5.25;2.33;;;;;;;8.46;60.28;99592.38;4459490;32;33490;-94
2023/10/16 04:05:50;;;;;;;5.10;2.20;;;;;;;8.08;61.80;99601.56;4446996;32;33028;-86
2023/10/16 04:08:23;;;;;;;5.55;2.60;;;;;;;8.00;62.21;99600.47;4469396;32;34584;-86
2023/10/16 04:10:53;;;;;;;6.00;2.47;;;;;;;8.25;61.37;99592.59;4469503;32;34160;-87
2023/10/16 04:13:30;;;;;;;5.32;2.50;;;;;;;8.00;62.22;99605.63;4465935;32;33244;-86
2023/10/16 04:34:34;;;;;;;5.93;2.78;;;;;;;7.89;62.83;99589.81;4405505;32;34497;-94
2023/10/16 04:48:06;;;;;;;7.03;2.85;;;;;;;7.35;64.54;99609.59;4457391;32;33525;-92
2023/10/16 04:53:07;;;;;;;5.28;2.42;;;;;;;7.70;63.41;99598.72;4447952;32;33442;-94
2023/10/16 04:58:47;;;;;;;5.00;2.67;;;;;;;7.68;63.33;99607.22;4439548;32;32703;-92
2023/10/16 05:01:33;;;;;;;5.95;3.03;;;;;;;7.04;65.30;99593.09;4453719;32;33444;-93
2023/10/16 05:07:16;;;;;;;7.00;3.10;;;;;;;7.30;64.60;99588.81;4442338;32;34108;-93
2023/10/16 05:18:11;;;;;;;6.37;3.00;;;;;;;6.65;67.17;99603.81;4454645;32;33116;-94
2023/10/16 05:21:19;;;;;;;5.80;2.85;;;;;;;6.66;66.85;99615.84;4453805;32;32994;-93
2023/10/16 06:14:16;;;;;;;;;;;;;;;6.85;66.90;99650.00;4453310;32;33468;-85
2023/10/16 06:16:53;;;;;;;6.18;3.20;;;;;;;7.04;66.16;99657.56;4461503;32;33202;-96
2023/10/16 06:19:24;;;;;;;5.90;3.00;;;;;;;7.44;64.89;99652.06;4449611;32;33511;-95
2023/10/16 06:21:57;;;;;;;5.82;2.97;;;;;;;7.03;66.19;99663.53;4466027;32;34760;-96
2023/10/16 06:24:26;;;;;;;6.12;3.25;;;;;;;7.33;65.55;99663.72;4462180;32;34991;-96
2023/10/16 06:26:56;;;;;;;8.15;3.28;;;;;;;7.03;66.32;99669.56;4449234;32;34457;-88
2023/10/16 06:29:34;;;;;;;6.55;3.40;;;;;;;7.09;66.46;99680.94;4437470;32;33662;-96
2023/10/16 06:32:07;;;;;;;6.70;3.10;;;;;;;7.21;66.63;99673.63;4464224;32;34463;-96
2023/10/16 06:34:37;;;;;;;6.70;2.80;;;;;;;7.31;66.08;99678.25;4446078;32;32751;-96
2023/10/16 06:37:06;;;;;;;6.05;3.25;;;;;;;7.77;64.03;99688.41;4447528;32;33875;-96
2023/10/16 06:39:37;;;;;;;8.52;3.08;;;;;;;7.75;64.26;99689.19;4461412;32;33657;-96
2023/10/16 06:42:19;;;;;;;6.00;3.17;;;;;;;7.50;65.02;99687.47;4463992;32;34636;-96
2023/10/16 06:44:53;;;;;;;6.40;2.85;;;;;;;7.36;65.36;99696.47;4451993;32;35133;-96
2023/10/16 06:47:34;;;;;;;7.35;2.95;;;;;;;7.65;64.55;99700.00;4440498;32;32708;-96
2023/10/16 06:53:02;;;;;;;8.65;3.22;;;;;;;8.02;63.21;99715.88;4448522;32;34831;-96
2023/10/16 06:55:30;;;;;;;7.93;2.75;;;;;;;8.10;63.81;99716.09;4446454;32;33318;-94
2023/10/16 06:57:58;;;;;;;7.05;3.10;;;;;;;7.86;64.20;99725.66;4467166;32;33005;-92
2023/10/16 07:00:27;;;;;;;5.05;2.67;;;;;;;8.18;62.60;99725.00;4468170;32;35076;-88
2023/10/16 07:02:56;;;;;;;6.75;3.28;;;;;;;8.26;62.84;99736.44;4463442;32;34089;-96
2023/10/16 07:05:42;;;;;;;7.05;3.22;;;;;;;8.36;62.05;99731.53;4467080;32;33549;-88
2023/10/16 07:08:17;;;;;;;6.65;3.15;;;;;;;8.77;61.48;99736.25;4461592;32;33868;-95
2023/10/16 07:10:51;;;;;;;5.53;2.78;;;;;;;8.52;61.85;99742.44;4448848;32;33694;-96
2023/10/16 07:13:28;;;;;;;8.07;3.12;;;;;;;8.71;61.73;99740.38;4447016;32;34877;-96
2023/10/16 07:16:03;;;;;;;5.05;2.70;;;;;;;8.67;61.51;99735.94;4449890;32;33875;-94
2023/10/16 07:18:33;;;;;;;8.48;3.30;;;;;;;8.71;61.29;99735.19;4449697;32;33455;-96
2023/10/16 07:23:35;;;;;;;7.20;3.20;;;;;;;8.80;61.10;99744.97;4454027;32;34381;-94
2023/10/16 07:26:09;;;;;;;9.85;2.87;;;;;;;9.18;60.24;99740.88;4454488;32;34330;-95
2023/10/16 07:28:41;;;;;;;5.22;2.90;;;;;;;8.97;60.65;99744.59;4462657;32;33564;-96
2023/10/16 07:31:10;;;;;;;9.48;3.55;;;;;;;8.98;60.94;99745.50;4442146;32;33935;-86
2023/10/16 07:33:41;;;;;;;5.82;2.65;;;;;;;8.88;61.11;99746.91;4465376;32;33990;-95
2023/10/16 07:36:13;;;;;;;6.90;3.20;;;;;;;9.09;60.02;99746.66;4462578;32;33930;-96
2023/10/16 07:38:40;;;;;;;7.40;2.53;;;;;;;8.81;61.34;99751.88;4468266;32;32839;-89
2023/10/16 07:41:13;;;;;;;6.95;2.72;;;;;;;9.00;60.79;99761.91;4462264;32;34878;-94
2023/10/16 07:43:45;;;;;;;5.32;2.40;;;;;;;9.01;60.53;99761.06;4446448;32;33903;-96
2023/10/16 07:46:39;;;;;;;8.43;2.85;;;;;;;9.40;59.36;99775.97;4462384;32;33078;-95
2023/10/16 07:49:09;;;;;;;5.25;2.97;;;;;;;9.23;59.85;99763.41;4454371;32;32862;-94
2023/10/16 07:51:45;;;;;;;7.53;2.55;;;;;;;9.46;59.20;99770.94;4458535;32;33571;-96
2023/10/16 07:54:14;;;;;;;6.15;2.50;;;;;;;9.64;58.15;99767.97;4462525;32;34489;-96
2023/10/16 07:56:41;;;;;;;6.10;1.92;;;;;;;9.90;57.31;99764.31;4461320;32;32899;-93
2023/10/16 07:59:10;;;;;;;4.10;1.58;;;;;;;9.64;58.39;99766.25;4460740;32;33424;-96
2023/10/16 08:01:54;;;;;;;7.28;2.30;;;;;;;9.87;58.30;99763.38;4462087;32;34069;-95
2023/10/16 08:06:52;;;;;;;6.97;2.20;;;;;;;9.37;58.59;99763.81;4456552;32;33818;-96
2023/10/16 08:12:47;;;;;;;4.12;1.60;;;;;;;10.05;57.01;99748.28;4454574;32;34601;-84
2023/10/16 08:15:09;;;;;;;4.43;1.70;;;;;;;9.86;56.79;99746.09;4456357;32;34057;-96
2023/10/16 08:17:37;;;;;;;6.43;1.70;;;;;;;10.17;55.33;99748.56;4448791;32;33920;-94
2023/10/16 08:20:09;;;;;;;7.57;2.03;;;;;;;10.33;54.77;99743.78;4457114;32;33271;-95
2023/10/16 08:22:37;;;;;;;6.40;1.67;;;;;;;10.59;53.09;99750.41;4447577;32;34621;-93
2023/10/16 08:25:07;;;;;;;5.00;1.98;;;;;;;10.68;53.11;99752.31;4463829;32;33869;-95
2023/10/16 08:30:32;;;;;;;4.20;1.60;;;;;;;10.82;52.51;99763.88;4447359;32;33779;-96
2023/10/16 08:33:09;;;;;;;7.20;1.80;;;;;;;10.96;50.81;99759.00;4450066;32;34453;-96
2023/10/16 08:35:41;;;;;;;;;;;;;;;10.62;52.51;99758.28;4449277;32;34175;-96
2023/10/16 08:38:51;;;;;;;4.35;2.00;;;;;;;10.90;53.09;99766.63;4459113;32;34201;-95
2023/10/16 08:41:07;;;;;;;6.62;1.80;;;;;;;10.76;52.59;99756.00;4449674;32;33233;-96
2023/10/16 08:43:53;;;;;;;5.80;1.60;;;;;;;10.86;51.31;99763.09;4445159;32;33839;-96
2023/10/16 08:46:52;;;;;;;4.45;1.70;;;;;;;10.49;52.30;99756.22;4453522;32;33775;-96
2023/10/16 08:49:26;;;;;;;6.22;1.85;;;;;;;11.14;51.86;99754.19;4454720;32;33606;-95
2023/10/16 08:52:04;;;;;;;4.72;1.50;;;;;;;11.03;51.42;99758.28;4431884;32;33447;-93
2023/10/16 08:57:16;;;;;;;5.78;1.87;;;;;;;11.31;50.64;99740.66;4450805;32;34041;-86
2023/10/16 08:59:47;;;;;;;4.20;1.70;;;;;;;11.00;50.97;99754.75;4462855;32;34203;-95
2023/10/16 09:02:18;;;;;;;5.40;1.70;;;;;;;11.57;48.95;99735.94;4454315;32;34784;-95
2023/10/16 09:04:52;;;;;;;4.70;1.50;;;;;;;11.53;50.46;99737.59;4445271;32;34061;-96
2023/10/16 09:07:20;;;;;;;4.68;1.48;;;;;;;11.12;49.87;99747.19;4450372;32;34070;-96
2023/10/16 09:09:53;;;;;;;5.55;1.50;;;;;;;11.63;48.68;99743.81;4450926;32;33271;-85
2023/10/16 09:12:26;;;;;;;6.00;2.03;;;;;;;11.64;48.61;99746.47;4451688;32;33816;-96
2023/10/16 09:15:05;;;;;;;5.85;1.77;;;;;;;11.54;48.58;99749.72;4452423;32;34417;-94
2023/10/16 09:17:34;;;;;;;5.57;2.12;;;;;;;11.72;48.58;99746.59;4456922;32;33950;-87
2023/10/16 09:20:13;;;;;;;5.97;1.62;;;;;;;11.42;48.89;99757.31;4441256;32;34285;-94
2023/10/16 09:22:46;;;;;;;4.10;1.60;;;;;;;11.85;47.49;99751.16;4457846;32;32967;-96
2023/10/16 09:25:18;;;;;;;4.30;1.62;;;;;;;11.53;47.99;99753.19;4456469;32;34000;-91
2023/10/16 09:28:05;;;;;;;9.50;1.73;;;;;;;11.32;47.29;99760.56;4460762;32;34034;-93
2023/10/16 09:30:34;;;;;;;6.18;1.62;;;;;;;11.72;45.99;99753.50;4444844;32;34219;-96
2023/10/16 09:33:03;;;;;;;5.93;1.45;;;;;;;11.71;45.65;99752.66;4458124;32;33475;-96
2023/10/16 09:35:32;;;;;;;5.75;1.42;;;;;;;11.56;46.37;99750.66;4456807;32;33778;-96
2023/10/16 09:38:19;;;;;;;4.05;1.30;;;;;;;11.91;45.63;99733.09;4458159;32;34235;-96
2023/10/16 09:40:58;;;;;;;5.60;1.60;;;;;;;11.93;45.86;99727.91;4445114;32;33592;-94
2023/10/16 09:43:27;;;;;;;4.18;1.55;;;;;;;12.00;45.70;99729.75;4447088;32;33880;-96
2023/10/16 09:46:33;;;;;;;6.37;2.78;;;;;;;12.33;45.84;99733.75;4442893;32;33379;-85
2023/10/16 09:48:45;;;;;;;7.15;2.20;;;;;;;12.42;44.82;99728.66;4460673;32;34612;-93
2023/10/16 09:51:14;;;;;;;6.25;1.50;;;;;;;12.14;44.86;99723.06;4454678;32;34183;-95
2023/10/16 09:53:42;;;;;;;5.82;1.67;;;;;;;12.33;44.95;99715.53;4454285;32;34324;-93
2023/10/16 09:56:12;;;;;;;4.60;1.30;;;;;;;12.40;45.19;99720.84;4453180;32;34329;-85
2023/10/16 09:58:44;;;;;;;5.10;1.50;;;;;;;12.49;44.93;99714.88;4440084;32;34204;-87
2023/10/16 10:01:21;;;;;;;4.45;1.20;;;;;;;12.65;43.49;99714.25;4440256;32;33506;-95
2023/10/16 10:03:49;;;;;;;4.93;1.48;;;;;;;12.35;44.58;99721.63;4444767;32;33666;-96
2023/10/16 10:06:20;;;;;;;6.22;1.55;;;;;;;12.26;44.69;99724.09;4439575;32;35071;-96
2023/10/16 10:11:38;;;;;;;4.72;1.42;;;;;;;12.17;46.36;99711.84;4442110;32;34315;-96
2023/10/16 10:14:09;;;;;;;4.10;1.27;;;;;;;12.07;46.10;99710.81;4444235;32;32883;-95
2023/10/16 10:16:45;;;;;;;6.68;1.90;;;;;;;12.14;45.43;99722.19;4446507;32;34203;-90
2023/10/16 10:19:41;;;;;;;4.47;1.83;;;;;;;12.46;45.12;99713.97;4446652;32;33781;-95
2023/10/16 10:22:22;;;;;;;5.10;1.42;;;;;;;12.28;44.68;99715.47;4461395;32;33726;-96
2023/10/16 10:25:25;;;;;;;5.00;1.67;;;;;;;12.72;43.80;99714.31;4443162;32;34167;-94
2023/10/16 10:28:09;;;;;;;6.62;1.70;;;;;;;11.82;45.13;99693.03;4430006;32;35599;-94
2023/10/16 10:30:43;;;;;;;5.37;1.35;;;;;;;11.98;44.73;99700.28;4447885;32;33745;-85
2023/10/16 10:33:37;;;;;;;3.72;1.52;;;;;;;12.02;45.05;99701.22;4456452;32;33863;-95
2023/10/16 10:36:30;;;;;;;4.25;1.58;;;;;;;12.42;43.61;99694.84;4456503;32;33429;-96
2023/10/16 10:42:03;;;;;;;4.37;1.65;;;;;;;12.46;44.22;99673.22;4458615;32;35491;-95
2023/10/16 10:47:44;;;;;;;3.08;1.05;;;;;;;12.16;44.49;99674.59;4454469;32;32474;-95
2023/10/16 10:50:13;;;;;;;5.85;1.52;;;;;;;12.85;43.42;99672.00;4454424;32;33799;-96
2023/10/16 10:52:43;;;;;;;4.78;1.40;;;;;;;12.96;42.62;99665.19;4455172;32;34028;-96
2023/10/16 10:55:21;;;;;;;9.60;1.48;;;;;;;12.98;43.45;99662.59;4456842;32;33517;-94
2023/10/16 10:58:11;;;;;;;7.37;2.05;;;;;;;12.47;44.34;99663.72;4458897;32;33219;-87
2023/10/16 11:00:46;;;;;;;3.97;1.40;;;;;;;12.88;43.42;99646.03;4443392;32;34438;-92
2023/10/16 11:03:22;;;;;;;4.35;1.65;;;;;;;12.82;42.29;99645.94;4455883;32;33720;-96
2023/10/16 11:05:50;;;;;;;6.18;1.30;;;;;;;12.81;41.69;99644.22;4455252;32;34101;-96
2023/10/16 11:08:22;;;;;;;4.47;1.52;;;;;;;12.99;42.45;99638.31;4463902;32;33032;-85
2023/10/16 11:11:04;;;;;;;3.45;1.23;;;;;;;13.32;42.12;99637.81;4452347;32;34294;-96
2023/10/16 11:13:31;;;;;;;6.70;1.58;;;;;;;13.11;41.04;99636.72;4458034;32;33646;-95
2023/10/16 11:16:00;;;;;;;4.55;1.27;;;;;;;12.71;42.01;99647.53;4463283;32;34524;-95
2023/10/16 11:18:30;;;;;;;6.45;1.48;;;;;;;12.90;42.08;99639.09;4463173;32;33425;-96
2023/10/16 11:21:04;;;;;;;3.85;1.30;;;;;;;13.03;41.70;99627.06;4466933;32;33907;-93
2023/10/16 11:23:38;;;;;;;4.72;1.30;;;;;;;13.31;42.83;99636.94;4461969;32;34867;-95
2023/10/16 11:26:27;;;;;;;4.37;1.00;;;;;;;13.29;42.22;99633.44;4451642;32;33696;-88
2023/10/16 11:28:56;;;;;;;5.60;1.48;;;;;;;13.04;40.88;99629.72;4465352;32;33093;-88
2023/10/16 11:31:24;;;;;;;4.55;1.10;;;;;;;13.38;40.79;99638.75;4475884;32;33689;-96
2023/10/16 11:34:11;;;;;;;4.00;1.00;;;;;;;13.41;40.47;99630.09;4462864;32;34184;-85
2023/10/16 11:36:40;;;;;;;4.80;1.08;;;;;;;13.03;41.95;99633.19;4474609;32;35163;-82
2023/10/16 11:39:29;;;;;;;4.70;1.00;;;;;;;13.42;40.18;99634.44;4470652;32;34015;-93
2023/10/16 11:41:58;;;;;;;3.80;1.25;;;;;;;13.60;40.31;99634.59;4470240;32;34547;-95
2023/10/16 11:44:26;;;;;;;3.33;1.40;;;;;;;13.25;40.36;99634.28;4472971;32;34200;-96
2023/10/16 11:47:01;;;;;;;5.22;1.62;;;;;;;13.23;41.72;99624.69;4461465;32;34477;-94
2023/10/16 11:49:31;;;;;;;5.50;1.40;;;;;;;13.32;40.99;99632.59;4460096;32;33580;-96
2023/10/16 11:52:09;;;;;;;4.25;1.27;;;;;;;13.34;41.44;99628.28;4470770;32;33418;-94
2023/10/16 11:54:40;;;;;;;5.40;1.83;;;;;;;13.55;42.09;99625.84;4463045;32;33850;-95
2023/10/16 11:57:13;;;;;;;4.30;1.17;;;;;;;13.70;40.91;99624.22;4472983;32;33508;-95
2023/10/16 11:59:41;;;;;;;4.53;1.00;;;;;;;13.78;39.06;99617.34;4475372;32;33113;-96
2023/10/16 12:02:12;;;;;;;7.35;1.08;;;;;;;13.85;39.59;99624.34;4474929;32;34195;-86
2023/10/16 12:04:41;;;;;;;4.03;1.23;;;;;;;14.27;38.21;99621.09;4476342;32;34044;-96
2023/10/16 12:07:13;;;;;;;4.35;1.15;;;;;;;14.41;38.26;99621.19;4475093;32;33605;-90
2023/10/16 12:09:53;;;;;;;6.28;1.60;;;;;;;14.22;38.83;99621.97;4458742;32;34054;-86
2023/10/16 12:12:29;;;;;;;4.50;1.35;;;;;;;14.00;40.02;99624.44;4476727;32;34150;-93
2023/10/16 12:14:57;;;;;;;4.00;1.35;;;;;;;14.02;38.51;99627.06;4472418;32;34037;-95
2023/10/16 12:17:28;;;;;;;3.62;1.10;;;;;;;13.97;39.09;99621.81;4473728;32;33780;-90
2023/10/16 12:19:57;;;;;;;3.37;1.00;;;;;;;13.53;39.89;99617.16;4474628;32;33037;-96
2023/10/16 12:22:25;;;;;;;6.45;1.25;;;;;;;13.71;40.05;99616.41;4477222;32;34379;-85
2023/10/16 12:24:52;;;;;;;4.82;1.37;;;;;;;13.23;40.49;99612.56;4466443;32;34522;-94
2023/10/16 12:27:21;;;;;;;4.65;1.08;;;;;;;13.79;39.54;99611.28;4480978;32;35351;-86
2023/10/16 12:29:49;;;;;;;2.95;1.10;;;;;;;13.79;39.56;99624.31;4479877;32;33700;-86
2023/10/16 12:32:16;;;;;;;5.37;1.17;;;;;;;14.10;39.10;99615.81;4465643;32;33045;-86
2023/10/16 12:34:44;;;;;;;4.80;1.12;;;;;;;13.68;39.23;99613.81;4480027;32;34571;-87
2023/10/16 12:37:12;;;;;;;3.97;1.05;;;;;;;14.06;39.41;99608.84;4479869;32;34933;-95
2023/10/16 12:39:45;;;;;;;4.03;1.10;;;;;;;14.40;39.08;99608.16;4478892;32;33834;-93
2023/10/16 12:42:15;;;;;;;4.28;1.10;;;;;;;13.81;37.41;99615.62;4475379;32;33943;-86
2023/10/16 12:44:43;;;;;;;6.30;1.60;;;;;;;13.65;38.15;99611.19;4479524;32;33934;-95
2023/10/16 12:47:14;;;;;;;5.35;1.60;;;;;;;14.05;38.33;99601.91;4458005;32;33881;-94
2023/10/16 12:50:07;;;;;;;2.95;1.08;;;;;;;14.24;39.32;99604.56;4462998;32;32607;-96
2023/10/16 12:52:34;;;;;;;4.22;1.58;;;;;;;14.10;39.67;99620.16;4473288;32;34822;-94
2023/10/16 12:55:02;;;;;;;5.72;1.10;;;;;;;13.90;37.50;99607.00;4475338;32;34894;-96
2023/10/16 12:57:29;;;;;;;4.28;1.15;;;;;;;14.12;37.53;99611.47;4461345;32;34407;-96
2023/10/16 13:00:26;;;;;;;;;;;;;;;13.68;38.55;99623.38;4474636;32;33367;-96
2023/10/16 13:02:55;;;;;;;4.20;1.37;;;;;;;13.76;38.53;99613.88;4473061;32;33344;-89
2023/10/16 13:05:38;;;;;;;3.83;1.33;;;;;;;13.54;38.81;99608.50;4469740;32;33835;-95
2023/10/16 13:08:08;;;;;;;2.72;1.10;;;;;;;13.80;38.55;99605.19;4471065;32;33555;-92
2023/10/16 13:10:36;;;;;;;2.92;0.93;;;;;;;13.61;39.20;99609.41;4456812;32;33413;-89
2023/10/16 13:13:03;;;;;;;2.83;1.10;;;;;;;13.66;39.49;99601.62;4475244;32;33534;-86
2023/10/16 13:15:31;;;;;;;7.30;1.20;;;;;;;13.29;39.35;99602.19;4478939;32;33323;-96
2023/10/16 13:18:00;;;;;;;2.78;1.10;;;;;;;13.31;39.55;99604.81;4471164;32;33340;-95
2023/10/16 13:20:28;;;;;;;3.17;1.00;;;;;;;13.54;37.62;99602.41;4470687;32;33606;-84
2023/10/16 13:22:56;;;;;;;3.15;0.88;;;;;;;13.94;37.00;99600.97;4470514;32;33526;-83
2023/10/16 13:25:34;;;;;;;2.92;1.00;;;;;;;13.55;38.64;99594.59;4457308;32;35022;-94
2023/10/16 13:28:03;;;;;;;6.22;1.10;;;;;;;13.01;38.74;99600.16;4458272;32;34531;-94
2023/10/16 13:30:31;;;;;;;1.70;0.73;;;;;;;13.23;38.76;99596.03;4470757;32;34430;-85
2023/10/16 13:33:08;;;;;;;4.75;0.77;;;;;;;13.13;39.40;99595.06;4471162;32;33667;-95
2023/10/16 13:35:38;;;;;;;3.60;0.95;;;;;;;13.66;38.69;99599.88;4470521;32;33629;-95
2023/10/16 13:38:11;;;;;;;3.20;0.70;;;;;;;13.90;38.72;99595.69;4470937;32;34483;-84
2023/10/16 13:40:43;;;;;;;4.87;1.20;;;;;;;13.78;39.59;99596.50;4472141;32;33798;-92
2023/10/16 13:43:11;;;;;;;3.53;1.10;;;;;;;13.29;38.41;99590.91;4472068;32;34673;-93
2023/10/16 13:45:40;;;;;;;5.47;0.95;;;;;;;13.09;37.73;99594.16;4471856;32;33375;-84
2023/10/16 13:48:09;;;;;;;2.92;0.75;;;;;;;13.33;37.88;99592.66;4470844;32;33546;-91
2023/10/16 13:50:54;;;;;;;;;;;;;;;13.72;37.84;99592.13;4470588;32;33365;-92
2023/10/16 13:53:24;;;;;;;3.83;1.10;;;;;;;13.87;37.31;99597.44;4471402;32;33724;-94
2023/10/16 13:56:00;;;;;;;3.92;0.95;;;;;;;13.13;38.30;99593.34;4461564;32;33762;-95
2023/10/16 13:58:29;;;;;;;3.75;0.93;;;;;;;13.44;38.52;99587.56;4470827;32;33839;-93
2023/10/16 14:00:58;;;;;;;3.95;0.90;;;;;;;13.04;38.66;99588.06;4470929;32;33400;-93
2023/10/16 14:03:49;;;;;;;3.55;1.10;;;;;;;13.25;38.20;99582.19;4446756;32;32631;-92
2023/10/16 14:06:22;;;;;;;4.90;1.20;;;;;;;13.34;38.26;99584.91;4464847;32;34123;-89
2023/10/16 14:08:51;;;;;;;3.17;1.17;;;;;;;13.30;38.21;99577.06;4445327;32;34935;-93